Terminal Aerodrome Forecast
Issued by NWS Charleston, WV

Current Version | Previous Version | Graphics & Text | Print | Product List | Glossary On
Versions: 1 2 3 4 5 6 7 8 9 10 11 12 13 14 15 16 17 18 19 20 21
708
FTUS41 KRLX 170846 AAA
TAFEKN
TAF AMD
KEKN 170846Z 1709/1806 VRB03KT P6SM OVC040
     FM171400 21005KT P6SM SCT100
     FM180300 24005KT P6SM SKC=

USA.gov is the U.S. government's official web portal to all federal, state and local government web resources and services.